Time;durP1;ratioP1;P1;durP2;ratioP2;P2;SDS_P1;SDS_P2;PMS_P1;PMS_P2;Temp;Humidity;BMP_temperature;BMP_pressure;BME280_temperature;BME280_humidity;BME280_pressure;Samples;Min_cycle;Max_cycle;Signal;HPM_P1;HPM_P2
2022/12/04 00:00:02;;;;;;;76.73;42.23;;;;;;;3.11;71.11;100745.75;4865683;28;96743;-96
2022/12/04 00:02:30;;;;;;;81.80;43.80;;;;;;;3.11;71.23;100737.06;4858501;28;96886;-95
2022/12/04 00:04:55;;;;;;;84.10;43.00;;;;;;;2.98;71.52;100719.75;4856398;28;98220;-96
2022/12/04 00:07:21;;;;;;;80.93;44.17;;;;;;;3.26;71.14;100776.06;4867895;28;100249;-96
2022/12/04 00:09:46;;;;;;;79.03;43.63;;;;;;;2.93;71.24;100720.59;4845833;28;96788;-96
2022/12/04 00:12:12;;;;;;;78.27;41.70;;;;;;;3.03;70.99;100729.28;4864399;28;96890;-94
2022/12/04 00:14:37;;;;;;;85.03;43.33;;;;;;;3.29;71.17;100764.81;4876203;28;99896;-96
2022/12/04 00:17:03;;;;;;;81.10;41.70;;;;;;;3.05;71.19;100724.09;4888990;28;97354;-96
2022/12/04 00:19:28;;;;;;;76.90;41.90;;;;;;;3.16;71.09;100733.63;4847434;28;96744;-96
2022/12/04 00:21:54;;;;;;;80.13;42.07;;;;;;;3.21;71.07;100744.03;4847641;28;97292;-96
2022/12/04 00:24:19;;;;;;;82.00;43.57;;;;;;;3.11;71.32;100726.69;4890866;28;100908;-95
2022/12/04 00:26:45;;;;;;;86.40;44.93;;;;;;;3.17;71.39;100727.59;4840815;28;101295;-96
2022/12/04 00:29:10;;;;;;;79.57;42.30;;;;;;;2.98;70.99;100710.25;4845229;28;96832;-96
2022/12/04 00:31:36;;;;;;;82.13;42.90;;;;;;;3.21;71.12;100749.22;4848522;28;97670;-96
2022/12/04 00:34:01;;;;;;;82.67;43.07;;;;;;;3.15;71.08;100731.91;4850298;28;99988;-96
2022/12/04 00:36:27;;;;;;;83.20;43.50;;;;;;;3.09;71.24;100734.50;4858263;28;97371;-96
2022/12/04 00:38:53;;;;;;;76.97;42.97;;;;;;;3.00;71.26;100715.44;4865009;28;96726;-96
2022/12/04 00:41:22;;;;;;;77.23;41.37;;;;;;;3.25;71.17;100748.34;4858890;28;96833;-96
2022/12/04 00:43:47;;;;;;;81.27;43.00;;;;;;;3.01;71.29;100697.28;4852091;28;100575;-96
2022/12/04 00:46:14;;;;;;;80.63;42.80;;;;;;;3.30;71.10;100728.47;4840257;28;99956;-96
2022/12/04 00:48:40;;;;;;;75.87;41.23;;;;;;;3.26;71.11;100741.44;4856452;28;96730;-96
2022/12/04 00:51:08;;;;;;;81.87;43.53;;;;;;;3.24;71.12;100753.56;4876123;28;97289;-96
2022/12/04 00:53:34;;;;;;;78.33;42.00;;;;;;;2.95;71.27;100698.13;4869641;28;98126;-95
2022/12/04 00:56:04;;;;;;;81.77;41.60;;;;;;;3.23;71.33;100733.66;4841701;28;99555;-96
2022/12/04 00:58:30;;;;;;;90.93;44.07;;;;;;;3.04;71.24;100688.66;4856402;28;97197;-96
2022/12/04 01:01:15;;;;;;;82.63;43.07;;;;;;;3.14;71.30;100732.78;4875109;28;96947;-96
2022/12/04 01:03:40;;;;;;;78.80;42.77;;;;;;;3.27;71.82;100758.75;4842620;28;100416;-96
2022/12/04 01:06:06;;;;;;;84.77;43.40;;;;;;;3.34;71.45;100753.56;4844176;28;99842;-96
2022/12/04 01:08:32;;;;;;;83.53;44.00;;;;;;;2.99;71.29;100690.34;4845377;28;97644;-96
2022/12/04 01:10:58;;;;;;;84.80;41.73;;;;;;;3.14;71.54;100704.25;4860740;28;96815;-96
2022/12/04 01:13:24;;;;;;;83.80;41.93;;;;;;;3.42;71.19;100750.13;4835373;28;101370;-96
2022/12/04 01:15:50;;;;;;;81.57;43.50;;;;;;;3.44;71.03;100738.03;4853874;28;100368;-96
2022/12/04 01:18:16;;;;;;;81.90;44.17;;;;;;;3.40;70.98;100751.00;4858551;28;98177;-96
2022/12/04 01:20:51;;;;;;;80.27;40.97;;;;;;;3.28;71.64;100737.97;4879686;28;97355;-95
2022/12/04 01:23:17;;;;;;;76.37;41.23;;;;;;;3.12;71.35;100689.53;4872544;28;99932;-96
2022/12/04 01:25:51;;;;;;;80.03;43.07;;;;;;;3.31;71.37;100730.19;4874868;28;98733;-96
2022/12/04 01:28:17;;;;;;;76.63;40.53;;;;;;;3.12;71.65;100685.19;4858487;28;96859;-96
2022/12/04 01:30:42;;;;;;;74.37;39.97;;;;;;;3.29;71.55;100698.22;4850939;28;97183;-96
2022/12/04 01:33:08;;;;;;;78.60;42.07;;;;;;;3.03;71.23;100664.44;4853530;28;100109;-93
2022/12/04 01:35:33;;;;;;;83.17;43.67;;;;;;;3.17;71.62;100687.78;4860069;28;97385;-96
2022/12/04 01:37:59;;;;;;;78.60;42.10;;;;;;;3.44;71.57;100730.25;4853931;28;97292;-96
2022/12/04 01:40:24;;;;;;;81.60;44.13;;;;;;;3.22;71.34;100687.81;4851623;28;96873;-96
2022/12/04 01:42:50;;;;;;;85.77;43.03;;;;;;;3.05;71.23;100678.25;4846920;28;100232;-95
2022/12/04 01:45:41;;;;;;;88.80;44.17;;;;;;;3.38;71.60;100725.91;4870417;28;96999;-96
2022/12/04 01:48:17;;;;;;;78.63;41.73;;;;;;;3.31;71.62;100725.00;4872669;28;97374;-96
2022/12/04 01:50:43;;;;;;;84.53;42.77;;;;;;;3.38;71.46;100728.50;4888371;28;96952;-96
2022/12/04 01:53:09;;;;;;;82.20;42.10;;;;;;;3.20;71.62;100718.06;4862344;28;98973;-95
2022/12/04 01:55:35;;;;;;;82.30;43.30;;;;;;;3.23;71.67;100716.38;4840207;28;100295;-96
2022/12/04 01:58:01;;;;;;;76.80;42.10;;;;;;;3.22;71.73;100698.19;4844029;28;96797;-96
2022/12/04 02:00:27;;;;;;;82.97;43.47;;;;;;;3.00;71.99;100664.44;4856111;28;96793;-96
2022/12/04 02:02:53;;;;;;;76.97;42.37;;;;;;;3.22;71.90;100693.00;4871193;28;98545;-96
2022/12/04 02:05:20;;;;;;;85.47;43.23;;;;;;;3.23;71.69;100698.22;4893685;28;98484;-96
2022/12/04 02:07:49;;;;;;;79.87;43.77;;;;;;;2.87;71.94;100653.16;4851305;28;96873;-96
2022/12/04 02:10:16;;;;;;;85.17;43.83;;;;;;;3.06;71.98;100686.94;4870343;28;96996;-96
2022/12/04 02:12:59;;;;;;;77.27;40.97;;;;;;;2.93;71.80;100667.84;4859456;28;100118;-96
2022/12/04 02:15:42;;;;;;;79.80;43.47;;;;;;;3.18;71.98;100716.34;4851543;28;101133;-95
2022/12/04 02:18:20;;;;;;;76.90;42.63;;;;;;;2.78;71.99;100658.31;4863750;28;96846;-96
2022/12/04 02:21:21;;;;;;;82.17;41.90;;;;;;;3.13;71.90;100696.44;4877461;28;97035;-93
2022/12/04 02:23:56;;;;;;;79.73;41.87;;;;;;;2.97;71.96;100680.00;4848935;28;100385;-93
2022/12/04 02:26:32;;;;;;;79.27;41.97;;;;;;;3.10;71.98;100680.88;4877341;28;99927;-96
2022/12/04 02:29:09;;;;;;;80.30;43.40;;;;;;;3.23;72.19;100708.59;4863454;28;96743;-96
2022/12/04 02:32:02;;;;;;;84.47;43.03;;;;;;;3.21;72.63;100694.75;4861749;28;97265;-96
2022/12/04 02:34:32;;;;;;;75.60;41.87;;;;;;;3.29;72.20;100712.94;4849805;28;100388;-96
2022/12/04 02:37:02;;;;;;;79.27;41.27;;;;;;;3.21;72.41;100718.09;4853785;28;100535;-96
2022/12/04 02:39:34;;;;;;;79.10;41.43;;;;;;;3.28;72.22;100709.44;4840823;28;96839;-96
2022/12/04 02:42:12;;;;;;;84.53;44.23;;;;;;;3.38;71.90;100715.53;4835451;28;97179;-96
2022/12/04 02:44:40;;;;;;;74.63;41.13;;;;;;;3.25;72.45;100706.84;4859335;28;100375;-96
2022/12/04 02:47:11;;;;;;;79.57;42.17;;;;;;;3.02;72.23;100665.28;4864371;28;100925;-96
2022/12/04 02:49:43;;;;;;;81.00;43.23;;;;;;;2.95;72.18;100658.38;4847383;28;97329;-96
2022/12/04 02:52:09;;;;;;;;;;;;;;;3.36;72.04;100717.25;4862405;28;97557;-96
2022/12/04 02:54:37;;;;;;;84.90;43.27;;;;;;;3.15;72.11;100661.88;4856817;28;100226;-96
2022/12/04 02:57:06;;;;;;;84.67;43.90;;;;;;;2.99;72.07;100656.63;4875891;28;98344;-96
2022/12/04 02:59:37;;;;;;;80.57;43.00;;;;;;;3.35;71.72;100716.38;4828879;28;98555;-96
2022/12/04 03:02:09;;;;;;;87.35;44.28;;;;;;;3.24;71.94;100686.09;4862837;28;96883;-96
2022/12/04 03:04:35;;;;;;;82.82;42.15;;;;;;;3.34;72.28;100693.00;4878267;28;98721;-96
2022/12/04 03:07:05;;;;;;;83.43;44.70;;;;;;;3.30;71.74;100694.75;4847232;28;100682;-96
2022/12/04 03:09:36;;;;;;;84.93;43.77;;;;;;;3.34;72.00;100704.25;4864721;28;96754;-95
2022/12/04 03:12:17;;;;;;;78.95;41.10;;;;;;;3.30;71.82;100699.06;4878228;28;96999;-96
2022/12/04 03:14:49;;;;;;;80.30;43.80;;;;;;;3.35;71.86;100699.97;4861853;28;98674;-96
2022/12/04 03:17:24;;;;;;;85.60;43.80;;;;;;;3.28;71.95;100690.41;4846304;28;101092;-96
2022/12/04 03:19:54;;;;;;;82.90;42.53;;;;;;;3.35;72.13;100703.41;4859380;28;96697;-96
2022/12/04 03:22:22;;;;;;;79.73;43.33;;;;;;;3.38;71.83;100703.41;4845304;28;97383;-96
2022/12/04 03:24:51;;;;;;;72.03;40.13;;;;;;;3.33;71.75;100701.69;4861478;28;101226;-96
2022/12/04 03:27:26;;;;;;;77.20;41.70;;;;;;;3.25;71.60;100693.00;4871915;28;97983;-96
2022/12/04 03:30:17;;;;;;;75.83;40.43;;;;;;;3.32;71.86;100716.38;4888268;28;97204;-96
2022/12/04 03:32:59;;;;;;;76.15;41.75;;;;;;;3.05;72.10;100667.03;4852824;28;96930;-96
2022/12/04 03:35:32;;;;;;;79.37;42.27;;;;;;;3.20;72.03;100687.81;4847037;28;100272;-96
2022/12/04 03:38:02;;;;;;;78.53;42.27;;;;;;;3.25;72.14;100713.75;4858815;28;101567;-96
2022/12/04 03:40:37;;;;;;;80.20;42.43;;;;;;;3.27;71.85;100715.50;4880037;28;96755;-96
2022/12/04 03:43:06;;;;;;;78.73;42.90;;;;;;;3.27;71.69;100704.25;4847416;28;96972;-96
2022/12/04 03:45:53;;;;;;;85.20;44.63;;;;;;;3.17;71.70;100708.53;4849764;28;100655;-96
2022/12/04 03:48:40;;;;;;;82.53;42.77;;;;;;;3.24;71.88;100712.03;4856651;28;101411;-96
2022/12/04 03:51:16;;;;;;;72.20;38.47;;;;;;;3.16;72.13;100709.41;4860642;28;96761;-96
2022/12/04 03:53:49;;;;;;;77.53;41.00;;;;;;;3.11;72.25;100698.16;4860838;28;96819;-95
2022/12/04 03:56:25;;;;;;;80.03;42.23;;;;;;;3.16;72.05;100707.69;4850981;28;99958;-96
2022/12/04 03:58:59;;;;;;;77.27;41.87;;;;;;;2.83;71.86;100677.34;4860806;28;100181;-96
2022/12/04 04:01:32;;;;;;;80.00;41.93;;;;;;;3.07;71.94;100705.06;4860629;28;96779;-96
2022/12/04 04:03:59;;;;;;;82.63;43.23;;;;;;;3.10;72.10;100697.31;4859077;28;96729;-96
2022/12/04 04:06:29;;;;;;;83.33;45.47;;;;;;;3.20;71.92;100698.22;4866968;28;98393;-96
2022/12/04 04:08:58;;;;;;;77.93;41.90;;;;;;;3.03;71.62;100661.84;4857636;28;100156;-96
2022/12/04 04:11:43;;;;;;;78.67;42.53;;;;;;;2.90;71.40;100649.69;4879745;28;96724;-96
2022/12/04 04:25:37;;;;;;;78.37;42.60;;;;;;;3.10;71.92;100668.75;4881077;28;96610;-96
2022/12/04 04:28:03;;;;;;;79.10;43.10;;;;;;;3.08;71.93;100667.03;4870098;28;98360;-96
2022/12/04 04:30:30;;;;;;;82.37;45.20;;;;;;;3.18;72.09;100680.03;4875856;28;97326;-96
2022/12/04 04:32:58;;;;;;;78.57;42.07;;;;;;;3.16;71.90;100683.47;4851600;28;96791;-96
2022/12/04 04:35:52;;;;;;;73.60;40.27;;;;;;;3.05;71.82;100656.66;4858669;28;97004;-95
2022/12/04 04:38:32;;;;;;;77.47;42.90;;;;;;;3.01;72.09;100665.28;4863563;28;100906;-96
2022/12/04 04:40:58;;;;;;;79.17;41.47;;;;;;;3.15;72.16;100680.03;4870231;28;99698;-96
2022/12/04 04:43:23;;;;;;;77.83;42.03;;;;;;;3.11;71.72;100682.59;4857325;28;96702;-96
2022/12/04 04:46:13;;;;;;;83.57;42.77;;;;;;;3.08;72.10;100680.84;4859239;28;97601;-96
2022/12/04 04:48:41;;;;;;;81.10;43.67;;;;;;;3.14;71.92;100683.50;4856330;28;100064;-96
2022/12/04 04:51:07;;;;;;;75.40;40.87;;;;;;;3.13;71.59;100683.47;4844781;28;101660;-96
2022/12/04 04:53:36;;;;;;;76.60;41.43;;;;;;;3.10;72.18;100678.28;4859343;28;96732;-96
2022/12/04 04:56:04;;;;;;;76.63;41.50;;;;;;;3.05;72.07;100662.69;4857149;28;96950;-96
2022/12/04 04:58:30;;;;;;;76.27;40.60;;;;;;;2.77;71.97;100622.03;4845601;28;101339;-96
2022/12/04 05:01:03;;;;;;;77.50;44.17;;;;;;;2.71;71.94;100617.69;4859068;28;99996;-96
2022/12/04 05:03:29;;;;;;;79.30;40.53;;;;;;;2.68;72.10;100628.06;4833028;29;96992;-96
2022/12/04 05:05:55;;;;;;;78.77;41.00;;;;;;;2.74;72.41;100654.00;4833859;28;96965;-96
2022/12/04 05:08:21;;;;;;;76.17;40.73;;;;;;;2.91;72.20;100690.34;4857125;28;97982;-96
2022/12/04 05:10:46;;;;;;;77.33;42.23;;;;;;;2.77;72.13;100666.09;4824629;28;100617;-96
2022/12/04 05:13:13;;;;;;;79.63;43.27;;;;;;;2.67;71.81;100647.03;4841103;29;96790;-96
2022/12/04 05:15:38;;;;;;;77.80;41.80;;;;;;;2.58;71.91;100639.22;4833150;28;96932;-96
2022/12/04 05:18:04;;;;;;;74.13;40.10;;;;;;;2.46;71.86;100640.91;4823194;29;102503;-96
2022/12/04 05:20:30;;;;;;;72.23;41.00;;;;;;;2.76;72.11;100690.28;4834023;28;97356;-96
2022/12/04 05:22:55;;;;;;;79.53;41.60;;;;;;;2.47;71.71;100636.59;4817915;29;96820;-94
2022/12/04 05:25:21;;;;;;;72.13;40.50;;;;;;;2.65;71.45;100659.16;4838316;28;96859;-96
2022/12/04 05:27:47;;;;;;;69.40;38.93;;;;;;;2.97;71.91;100694.66;4825961;28;100484;-96
2022/12/04 05:30:12;;;;;;;78.83;41.43;;;;;;;2.84;71.90;100688.56;4847328;29;97956;-96
2022/12/04 05:32:38;;;;;;;79.70;42.93;;;;;;;2.56;71.72;100625.38;4834710;29;97503;-96
2022/12/04 05:35:04;;;;;;;76.23;40.43;;;;;;;2.86;72.00;100682.53;4832226;29;96936;-96
2022/12/04 05:37:29;;;;;;;73.87;40.17;;;;;;;2.66;71.85;100645.31;4835344;29;100029;-96
2022/12/04 05:39:54;;;;;;;78.70;40.43;;;;;;;2.65;71.89;100651.38;4825576;28;101618;-96
2022/12/04 05:42:20;;;;;;;72.90;39.30;;;;;;;2.84;71.82;100683.41;4844758;29;97224;-96
2022/12/04 05:44:47;;;;;;;73.17;40.07;;;;;;;2.62;72.07;100661.72;4826595;29;96653;-96
2022/12/04 05:47:12;;;;;;;71.40;41.13;;;;;;;2.81;71.89;100692.03;4835467;28;101069;-96
2022/12/04 05:49:38;;;;;;;72.57;40.20;;;;;;;2.76;71.95;100678.16;4848098;29;98243;-96
2022/12/04 05:52:04;;;;;;;70.37;38.57;;;;;;;2.38;71.27;100614.09;4834344;28;97247;-96
2022/12/04 05:54:30;;;;;;;78.23;40.67;;;;;;;2.34;71.62;100614.94;4858078;28;96817;-96
2022/12/04 05:56:55;;;;;;;78.40;43.03;;;;;;;2.42;72.46;100630.53;4825610;28;99839;-96
2022/12/04 05:59:21;;;;;;;79.63;42.07;;;;;;;2.67;72.31;100671.22;4835070;28;100068;-96
2022/12/04 06:01:46;;;;;;;76.17;39.43;;;;;;;2.67;71.88;100681.59;4826044;29;97157;-95
2022/12/04 06:04:12;;;;;;;76.53;41.43;;;;;;;2.48;71.95;100644.38;4837336;28;97777;-95
2022/12/04 06:06:38;;;;;;;74.83;41.57;;;;;;;2.46;72.01;100642.63;4848145;29;98349;-95
2022/12/04 06:09:05;;;;;;;73.20;40.00;;;;;;;2.51;72.08;100643.53;4832167;28;101453;-96
2022/12/04 06:11:34;;;;;;;76.03;40.10;;;;;;;2.75;71.97;100676.44;4842748;29;96828;-96
2022/12/04 06:14:01;;;;;;;70.47;39.93;;;;;;;2.54;71.91;100666.88;4822609;28;96887;-96
2022/12/04 06:16:29;;;;;;;69.63;40.97;;;;;;;2.77;71.83;100710.19;4842254;28;98836;-96
2022/12/04 06:18:57;;;;;;;75.40;39.97;;;;;;;2.44;71.98;100681.53;4837598;28;100495;-95
2022/12/04 06:21:25;;;;;;;80.27;41.07;;;;;;;2.33;71.70;100652.09;4827105;28;96753;-96
2022/12/04 06:23:51;;;;;;;79.17;43.13;;;;;;;2.73;71.79;100717.06;4826566;28;96763;-96
2022/12/04 06:26:17;;;;;;;75.23;40.10;;;;;;;2.29;72.14;100639.09;4831574;28;98375;-96
2022/12/04 06:28:43;;;;;;;74.67;41.63;;;;;;;2.33;71.86;100654.69;4864773;28;97328;-95
2022/12/04 06:31:11;;;;;;;79.40;41.33;;;;;;;2.61;72.21;100688.50;4827036;29;97420;-96
2022/12/04 06:33:37;;;;;;;74.47;41.33;;;;;;;2.45;72.34;100675.47;4843266;28;97594;-96
2022/12/04 06:36:09;;;;;;;76.13;40.57;;;;;;;2.26;72.85;100661.53;4844994;28;98452;-96
2022/12/04 06:38:35;;;;;;;69.40;39.45;;;;;;;2.54;72.29;100694.50;4835561;28;97549;-96
2022/12/04 06:41:05;;;;;;;76.90;41.97;;;;;;;2.29;72.33;100658.09;4834690;29;96770;-95
2022/12/04 06:43:31;;;;;;;78.20;41.63;;;;;;;2.37;72.19;100665.94;4829450;28;97252;-96
2022/12/04 06:46:04;;;;;;;88.20;42.60;;;;;;;2.80;72.39;100723.16;4844535;28;97812;-95
2022/12/04 06:48:30;;;;;;;75.73;40.93;;;;;;;2.54;72.42;100681.56;4824609;28;100320;-94
2022/12/04 06:51:03;;;;;;;74.77;40.83;;;;;;;2.76;72.18;100722.25;4839900;29;96852;-96
2022/12/04 06:53:31;;;;;;;68.33;37.67;;;;;;;2.47;71.60;100691.91;4836235;28;96759;-95
2022/12/04 06:55:57;;;;;;;76.10;39.97;;;;;;;2.70;72.25;100704.06;4855112;28;100768;-96
2022/12/04 06:58:23;;;;;;;78.93;41.93;;;;;;;2.62;72.15;100680.72;4834047;28;100926;-96
2022/12/04 07:00:49;;;;;;;78.63;41.83;;;;;;;2.68;71.77;100690.25;4811582;29;97251;-96
2022/12/04 07:03:14;;;;;;;67.23;38.73;;;;;;;2.94;72.10;100713.69;4857813;28;96923;-96
2022/12/04 07:05:40;;;;;;;71.43;39.57;;;;;;;2.84;72.07;100686.00;4855996;28;98037;-96
2022/12/04 07:08:05;;;;;;;79.40;40.90;;;;;;;2.97;72.34;100708.53;4833407;28;101397;-95
2022/12/04 07:10:31;;;;;;;77.13;41.20;;;;;;;2.68;72.38;100654.84;4844884;29;96958;-94
2022/12/04 07:12:56;;;;;;;76.97;42.70;;;;;;;2.88;72.12;100672.16;4850143;28;97172;-96
2022/12/04 07:15:22;;;;;;;83.50;42.10;;;;;;;3.12;72.01;100705.09;4872050;28;98010;-94
2022/12/04 07:17:47;;;;;;;80.63;41.30;;;;;;;3.10;72.61;100707.66;4859378;28;97934;-94
2022/12/04 07:20:13;;;;;;;78.93;44.03;;;;;;;3.20;72.73;100686.94;4829958;29;96891;-95
2022/12/04 07:22:38;;;;;;;74.10;40.73;;;;;;;3.12;72.72;100689.53;4856209;28;96937;-95
2022/12/04 07:25:04;;;;;;;79.80;42.73;;;;;;;3.18;72.35;100685.22;4829639;28;101450;-96
2022/12/04 07:27:30;;;;;;;73.57;40.97;;;;;;;2.98;73.07;100680.84;4842927;29;98144;-95
2022/12/04 07:29:55;;;;;;;80.30;43.03;;;;;;;3.13;73.16;100705.09;4869433;28;96960;-96
2022/12/04 07:32:21;;;;;;;75.10;41.43;;;;;;;3.24;72.99;100712.91;4855633;28;97281;-96
2022/12/04 07:34:47;;;;;;;79.20;41.00;;;;;;;3.04;73.09;100663.56;4850189;28;99934;-95
2022/12/04 07:37:12;;;;;;;80.87;41.70;;;;;;;3.05;73.00;100674.81;4842969;28;98407;-95
2022/12/04 07:39:37;;;;;;;77.73;41.53;;;;;;;3.20;72.73;100695.59;4861762;28;96851;-95
2022/12/04 07:42:03;;;;;;;79.30;43.77;;;;;;;3.35;72.69;100725.91;4843576;28;96885;-96
2022/12/04 07:44:32;;;;;;;80.90;42.00;;;;;;;3.32;72.34;100712.94;4841003;29;99889;-96
2022/12/04 07:46:57;;;;;;;72.60;41.80;;;;;;;3.35;72.01;100715.53;4842590;28;98450;-96
2022/12/04 07:49:22;;;;;;;76.97;40.43;;;;;;;3.34;72.19;100718.97;4844430;28;97614;-92
2022/12/04 07:51:48;;;;;;;84.53;41.77;;;;;;;3.13;72.28;100671.34;4828641;28;97229;-92
2022/12/04 07:54:14;;;;;;;74.60;41.43;;;;;;;3.40;72.19;100704.28;4841938;28;99932;-86
2022/12/04 07:56:39;;;;;;;77.73;43.37;;;;;;;3.55;72.08;100723.31;4861495;28;97892;-84
2022/12/04 07:59:04;;;;;;;76.83;42.00;;;;;;;3.68;71.62;100721.63;4843675;29;97690;-87
2022/12/04 08:01:30;;;;;;;76.87;42.70;;;;;;;3.68;71.63;100719.03;4867051;28;99151;-87
2022/12/04 08:03:57;;;;;;;77.57;41.40;;;;;;;3.65;71.89;100716.44;4825093;28;102076;-89
2022/12/04 08:06:24;;;;;;;75.30;41.90;;;;;;;3.52;72.00;100684.38;4841832;28;98400;-89
2022/12/04 08:08:50;;;;;;;73.80;41.47;;;;;;;3.68;71.55;100687.84;4827535;28;96878;-90
2022/12/04 08:11:21;;;;;;;76.87;42.73;;;;;;;3.79;71.40;100699.13;4827903;28;97320;-89
2022/12/04 08:13:47;;;;;;;79.27;44.63;;;;;;;3.80;71.73;100713.81;4840775;28;99939;-87
2022/12/04 08:16:13;;;;;;;77.90;43.87;;;;;;;3.75;71.86;100724.22;4846787;28;99834;-82
2022/12/04 08:18:39;;;;;;;86.40;45.50;;;;;;;3.81;71.90;100720.72;4858765;28;96907;-81
2022/12/04 08:21:06;;;;;;;75.03;42.10;;;;;;;3.86;71.56;100726.81;4842659;28;97118;-81
2022/12/04 08:23:32;;;;;;;77.83;43.03;;;;;;;3.89;72.15;100719.00;4857624;28;98208;-85
2022/12/04 08:25:59;;;;;;;75.50;42.70;;;;;;;3.71;71.84;100690.47;4842953;28;99677;-84
2022/12/04 08:28:25;;;;;;;78.03;44.40;;;;;;;3.89;71.77;100726.81;4849283;28;96821;-82
2022/12/04 08:30:50;;;;;;;89.27;46.70;;;;;;;3.90;71.79;100720.75;4866169;28;97227;-83
2022/12/04 08:33:16;;;;;;;75.97;43.80;;;;;;;3.77;72.50;100716.41;4832566;28;101101;-84
2022/12/04 08:35:41;;;;;;;79.53;43.70;;;;;;;3.73;72.24;100704.31;4828040;28;99537;-83
2022/12/04 08:38:07;;;;;;;75.50;41.67;;;;;;;3.79;72.22;100706.91;4859827;28;96975;-85
2022/12/04 08:40:32;;;;;;;80.20;44.03;;;;;;;3.86;72.37;100713.81;4856054;28;96819;-83
2022/12/04 08:42:57;;;;;;;75.30;40.87;;;;;;;3.84;72.84;100715.56;4858827;28;98030;-80
2022/12/04 08:45:23;;;;;;;78.77;44.93;;;;;;;4.08;72.25;100722.47;4842649;28;100967;-85
2022/12/04 08:47:48;;;;;;;82.37;46.40;;;;;;;4.00;71.97;100704.28;4854221;28;97387;-84
2022/12/04 08:50:14;;;;;;;84.60;44.40;;;;;;;4.03;71.66;100732.00;4822842;28;97458;-83
2022/12/04 08:52:39;;;;;;;73.37;40.80;;;;;;;3.89;72.49;100721.59;4828956;28;97506;-85
2022/12/04 08:55:06;;;;;;;78.30;43.57;;;;;;;3.98;72.15;100733.72;4839918;28;97980;-84
2022/12/04 08:57:31;;;;;;;80.60;43.83;;;;;;;4.08;72.32;100751.91;4829270;28;97581;-85
2022/12/04 08:59:57;;;;;;;78.67;42.13;;;;;;;4.11;72.21;100740.66;4827588;28;97374;-85
2022/12/04 09:02:22;;;;;;;80.87;45.40;;;;;;;4.19;72.24;100748.41;4851134;28;97809;-85
2022/12/04 09:04:47;;;;;;;75.97;41.90;;;;;;;4.26;71.75;100742.38;4855663;28;98150;-85
2022/12/04 09:07:13;;;;;;;76.57;43.83;;;;;;;4.32;71.79;100732.81;4852186;28;97839;-85
2022/12/04 09:09:38;;;;;;;75.63;44.40;;;;;;;4.36;71.91;100740.59;4856180;28;98001;-86
2022/12/04 09:12:04;;;;;;;80.27;44.03;;;;;;;4.45;71.41;100732.78;4842292;28;98533;-84
2022/12/04 09:14:29;;;;;;;78.13;43.97;;;;;;;4.45;71.16;100709.38;4847256;28;101267;-86
2022/12/04 09:16:55;;;;;;;76.57;42.03;;;;;;;4.67;71.14;100715.41;4863997;28;96734;-85
2022/12/04 09:19:20;;;;;;;84.37;45.27;;;;;;;4.92;70.61;100721.38;4865003;28;96765;-85
2022/12/04 09:21:46;;;;;;;74.30;43.80;;;;;;;5.04;69.74;100708.31;4851913;29;98256;-85
2022/12/04 09:24:12;;;;;;;71.63;42.00;;;;;;;5.28;68.98;100707.28;4849180;28;98100;-88
2022/12/04 09:26:37;;;;;;;73.80;40.43;;;;;;;5.51;68.61;100719.31;4847427;28;96877;-86
2022/12/04 09:29:04;;;;;;;67.30;41.30;;;;;;;5.42;68.00;100696.78;4841905;28;96853;-88
2022/12/04 09:31:30;;;;;;;66.23;39.53;;;;;;;5.59;68.13;100720.97;4834687;28;101490;-88
2022/12/04 09:33:59;;;;;;;70.47;39.47;;;;;;;5.58;67.78;100723.56;4845622;28;100273;-88
2022/12/04 09:36:25;;;;;;;69.80;40.10;;;;;;;5.62;67.32;100731.38;4843553;28;96649;-88
2022/12/04 09:38:53;;;;;;;67.47;39.90;;;;;;;5.61;67.35;100731.38;4842446;28;97894;-87
2022/12/04 09:45:42;;;;;;;64.05;37.58;;;;;;;5.86;67.10;100726.84;4873946;28;97003;-88
2022/12/04 09:52:35;;;;;;;63.00;38.30;;;;;;;5.97;66.91;100718.97;4873972;28;96554;-89
2022/12/04 09:58:57;;;;;;;64.80;39.33;;;;;;;6.05;66.38;100705.00;4873579;28;96944;-88
2022/12/04 10:01:27;;;;;;;67.33;40.00;;;;;;;6.15;66.24;100703.16;4857358;28;96889;-88
2022/12/04 10:03:54;;;;;;;61.93;38.33;;;;;;;6.03;66.36;100693.72;4856894;28;97166;-83
2022/12/04 10:06:45;;;;;;;68.97;41.57;;;;;;;6.11;66.64;100697.13;4846760;28;100166;-83
2022/12/04 10:09:22;;;;;;;62.40;39.90;;;;;;;6.11;67.07;100696.25;4845997;28;100706;-83
2022/12/04 10:12:12;;;;;;;67.67;38.33;;;;;;;6.19;66.77;100698.78;4875780;28;96818;-84
2022/12/04 10:15:15;;;;;;;63.97;38.20;;;;;;;6.37;66.62;100697.72;4841198;28;96757;-85
2022/12/04 10:17:57;;;;;;;66.27;37.70;;;;;;;6.33;66.57;100694.28;4872735;28;101549;-84
2022/12/04 10:20:35;;;;;;;62.58;37.20;;;;;;;6.40;66.22;100695.97;4847289;28;101655;-85
2022/12/04 10:23:09;;;;;;;57.47;36.03;;;;;;;6.44;66.21;100692.44;4867223;28;96817;-85
2022/12/04 10:25:35;;;;;;;65.63;40.47;;;;;;;6.56;65.31;100683.59;4855989;28;96889;-85
2022/12/04 10:28:22;;;;;;;63.63;40.53;;;;;;;6.46;65.61;100695.03;4863153;28;98568;-85
2022/12/04 10:30:49;;;;;;;64.13;39.40;;;;;;;6.20;66.17;100684.88;4835945;28;100437;-83
2022/12/04 10:33:41;;;;;;;58.37;35.47;;;;;;;6.16;66.73;100693.59;4845390;28;97812;-83
2022/12/04 10:36:11;;;;;;;63.03;36.28;;;;;;;6.18;66.63;100668.38;4820909;28;97787;-83
2022/12/04 10:39:00;;;;;;;65.07;38.73;;;;;;;6.47;66.31;100684.56;4882045;28;99250;-85
2022/12/04 10:41:30;;;;;;;61.43;36.60;;;;;;;6.36;66.25;100681.22;4842212;28;100536;-86
2022/12/04 10:43:55;;;;;;;61.43;38.30;;;;;;;6.17;66.92;100659.69;4849803;28;96927;-86
2022/12/04 10:46:24;;;;;;;62.80;39.60;;;;;;;6.31;66.93;100663.03;4868588;28;96913;-85
2022/12/04 10:49:15;;;;;;;60.87;38.90;;;;;;;6.45;67.11;100668.06;4851664;28;100994;-86
2022/12/04 10:51:42;;;;;;;60.15;38.85;;;;;;;6.34;66.59;100646.47;4854988;28;101832;-85
2022/12/04 10:54:35;;;;;;;58.45;35.72;;;;;;;6.41;66.95;100665.53;4850192;28;96779;-84
2022/12/04 10:57:04;;;;;;;62.45;36.95;;;;;;;6.44;67.08;100658.53;4861905;28;96864;-83
2022/12/04 10:59:30;;;;;;;63.83;37.57;;;;;;;6.38;67.05;100656.00;4850015;28;101513;-85
2022/12/04 11:02:11;;;;;;;60.65;35.30;;;;;;;6.43;67.16;100662.03;4846670;28;101566;-84
2022/12/04 11:04:36;;;;;;;61.50;36.53;;;;;;;6.31;67.42;100642.16;4855174;28;97237;-84
2022/12/04 11:07:17;;;;;;;58.78;36.85;;;;;;;6.44;67.13;100647.22;4828572;28;97583;-85
2022/12/04 11:09:43;;;;;;;56.47;36.27;;;;;;;6.46;66.95;100659.38;4835340;28;101597;-85
2022/12/04 11:12:17;;;;;;;55.83;34.90;;;;;;;6.47;67.41;100665.44;4852163;28;97630;-84
2022/12/04 11:14:42;;;;;;;60.72;37.25;;;;;;;6.49;67.23;100645.44;4840992;28;96821;-84
2022/12/04 11:17:15;;;;;;;56.50;33.47;;;;;;;6.31;67.42;100621.31;4859499;28;97240;-84
2022/12/04 11:19:41;;;;;;;59.57;35.40;;;;;;;6.25;67.22;100616.13;4855302;28;100959;-84
2022/12/04 11:22:15;;;;;;;56.13;36.97;;;;;;;6.29;67.62;100614.38;4858758;28;101244;-84
2022/12/04 11:24:41;;;;;;;57.95;35.03;;;;;;;6.47;67.69;100640.22;4836651;28;97504;-84
2022/12/04 11:27:15;;;;;;;61.65;36.00;;;;;;;6.46;67.48;100638.50;4839154;28;97262;-84
2022/12/04 11:29:42;;;;;;;60.50;35.90;;;;;;;6.44;67.53;100631.59;4846317;28;101316;-85
2022/12/04 11:32:31;;;;;;;54.80;35.03;;;;;;;6.40;67.70;100630.75;4857972;28;100991;-84
2022/12/04 11:35:00;;;;;;;53.30;33.72;;;;;;;6.31;67.81;100608.28;4849170;28;97480;-84
2022/12/04 11:37:32;;;;;;;56.47;35.97;;;;;;;6.51;67.67;100631.47;4847605;28;97402;-84
2022/12/04 11:39:58;;;;;;;53.57;34.20;;;;;;;6.38;68.19;100626.44;4859722;28;101643;-83
2022/12/04 11:42:27;;;;;;;53.92;34.17;;;;;;;6.40;68.09;100632.47;4861424;28;99600;-84
2022/12/04 11:45:19;;;;;;;54.85;34.78;;;;;;;6.34;67.89;100613.44;4852791;28;96900;-84
2022/12/04 11:47:53;;;;;;;52.87;32.93;;;;;;;6.26;68.79;100617.88;4865923;28;98449;-85